Time;durP1;ratioP1;P1;durP2;ratioP2;P2;SDS_P1;SDS_P2;PMS_P1;PMS_P2;Temp;Humidity;BMP_temperature;BMP_pressure;BME280_temperature;BME280_humidity;BME280_pressure;Samples;Min_cycle;Max_cycle;Signal;HPM_P1;HPM_P2
2023/12/24 00:01:13;;;;;;;1.17;1.17;;;;;;;;;;4968281;28;20034;-71
2023/12/24 00:03:39;;;;;;;1.20;1.20;;;;;;;;;;4966095;28;20062;-71
2023/12/24 00:06:06;;;;;;;1.15;1.15;;;;;;;;;;4980238;28;20037;-71
2023/12/24 00:08:32;;;;;;;1.50;1.40;;;;;;;;;;4969977;28;20463;-71
2023/12/24 00:10:58;;;;;;;1.20;1.20;;;;;;;;;;4980510;28;20037;-72
2023/12/24 00:13:27;;;;;;;1.40;1.30;;;;;;;;;;4979975;28;20031;-71
2023/12/24 00:15:53;;;;;;;1.30;1.23;;;;;;;;;;4967627;28;20114;-71
2023/12/24 00:18:20;;;;;;;1.35;1.30;;;;;;;;;;4973794;28;20049;-72
2023/12/24 00:20:46;;;;;;;1.20;1.20;;;;;;;;;;4973136;28;20027;-72
2023/12/24 00:23:12;;;;;;;1.10;1.10;;;;;;;;;;4968060;28;20031;-71
2023/12/24 00:25:40;;;;;;;1.30;1.30;;;;;;;;;;4973282;28;20502;-71
2023/12/24 00:28:07;;;;;;;1.55;1.10;;;;;;;;;;4971294;28;20462;-72
2023/12/24 00:30:34;;;;;;;1.35;1.30;;;;;;;;;;4967744;28;20042;-72
2023/12/24 00:33:00;;;;;;;1.40;1.27;;;;;;;;;;4979671;28;20034;-72
2023/12/24 00:35:27;;;;;;;1.67;1.45;;;;;;;;;;4981267;28;20395;-71
2023/12/24 00:37:58;;;;;;;1.45;1.35;;;;;;;;;;4983487;28;20031;-72
2023/12/24 00:40:25;;;;;;;1.40;1.30;;;;;;;;;;4962005;28;20035;-72
2023/12/24 00:42:51;;;;;;;1.95;1.30;;;;;;;;;;4973725;28;20084;-72
2023/12/24 00:45:18;;;;;;;3.05;2.13;;;;;;;;;;4975286;28;20062;-72
2023/12/24 00:47:45;;;;;;;5.88;3.40;;;;;;;;;;4983319;28;20031;-71
2023/12/24 00:50:11;;;;;;;5.40;3.42;;;;;;;;;;4973913;28;20084;-72
2023/12/24 00:52:40;;;;;;;1.52;1.40;;;;;;;;;;4971135;28;20034;-72
2023/12/24 00:55:09;;;;;;;1.30;1.10;;;;;;;;;;4969842;28;20027;-72
2023/12/24 00:57:37;;;;;;;1.40;1.30;;;;;;;;;;4972737;28;20039;-72
2023/12/24 01:00:04;;;;;;;1.20;1.20;;;;;;;;;;4984294;28;20463;-71
2023/12/24 01:02:30;;;;;;;1.45;1.17;;;;;;;;;;4963446;28;20592;-72
2023/12/24 01:04:56;;;;;;;1.30;1.30;;;;;;;;;;4966140;28;20034;-72
2023/12/24 01:07:22;;;;;;;1.02;1.02;;;;;;;;;;4969514;28;20478;-72
2023/12/24 01:09:48;;;;;;;1.35;1.25;;;;;;;;;;4970548;28;20031;-72
2023/12/24 01:12:17;;;;;;;1.38;1.30;;;;;;;;;;4974731;28;20039;-73
2023/12/24 01:14:43;;;;;;;1.10;1.10;;;;;;;;;;4970651;28;20042;-72
2023/12/24 01:17:09;;;;;;;1.33;1.27;;;;;;;;;;4982459;28;20086;-73
2023/12/24 01:19:36;;;;;;;1.23;1.13;;;;;;;;;;4974448;28;20530;-72
2023/12/24 01:22:02;;;;;;;1.80;1.30;;;;;;;;;;4984715;28;20019;-72
2023/12/24 01:24:28;;;;;;;1.10;1.10;;;;;;;;;;4996261;28;20265;-73
2023/12/24 01:26:54;;;;;;;1.45;1.35;;;;;;;;;;4978442;28;20487;-74
2023/12/24 01:29:24;;;;;;;1.10;1.10;;;;;;;;;;4975804;28;20478;-72
2023/12/24 01:31:50;;;;;;;1.45;1.38;;;;;;;;;;4965938;28;20031;-73
2023/12/24 01:34:17;;;;;;;1.10;1.08;;;;;;;;;;4978691;28;20046;-73
2023/12/24 01:36:43;;;;;;;1.42;1.33;;;;;;;;;;4970923;28;20039;-72
2023/12/24 01:39:10;;;;;;;6.03;1.48;;;;;;;;;;4968299;28;20108;-72
2023/12/24 01:41:36;;;;;;;1.10;1.10;;;;;;;;;;4987725;28;20018;-72
2023/12/24 01:44:02;;;;;;;2.38;1.30;;;;;;;;;;4967952;28;20031;-73
2023/12/24 01:46:29;;;;;;;1.55;1.33;;;;;;;;;;4969169;28;20023;-72
2023/12/24 01:48:56;;;;;;;1.20;1.20;;;;;;;;;;4972931;28;20035;-75
2023/12/24 01:51:24;;;;;;;1.20;1.10;;;;;;;;;;4970764;28;20392;-72
2023/12/24 01:53:51;;;;;;;2.35;1.25;;;;;;;;;;4973652;28;20035;-72
2023/12/24 01:56:20;;;;;;;1.80;1.17;;;;;;;;;;4959874;28;20106;-73
2023/12/24 01:58:46;;;;;;;1.05;1.05;;;;;;;;;;4968527;28;20039;-73
2023/12/24 02:01:13;;;;;;;1.45;1.38;;;;;;;;;;4970045;28;20034;-72
2023/12/24 02:03:39;;;;;;;2.05;1.30;;;;;;;;;;4968870;28;20022;-72
2023/12/24 02:06:10;;;;;;;1.40;1.30;;;;;;;;;;4973595;28;20051;-72
2023/12/24 02:08:36;;;;;;;0.93;0.93;;;;;;;;;;4963653;28;20465;-71
2023/12/24 02:11:03;;;;;;;1.02;1.02;;;;;;;;;;4997717;28;20049;-72
2023/12/24 02:13:31;;;;;;;1.17;1.08;;;;;;;;;;4975351;28;20102;-73
2023/12/24 02:15:58;;;;;;;1.63;1.40;;;;;;;;;;5011357;28;20026;-72
2023/12/24 02:18:24;;;;;;;1.45;1.35;;;;;;;;;;4970898;28;20397;-72
2023/12/24 02:20:51;;;;;;;2.83;1.15;;;;;;;;;;4967499;28;20116;-73
2023/12/24 02:23:17;;;;;;;1.55;1.45;;;;;;;;;;4990290;28;20316;-71
2023/12/24 02:25:44;;;;;;;1.27;1.15;;;;;;;;;;4972784;28;20035;-73
2023/12/24 02:28:15;;;;;;;2.85;1.02;;;;;;;;;;4984062;28;20951;-72
2023/12/24 02:33:18;;;;;;;1.33;1.27;;;;;;;;;;2702680;22;20056;-66
2023/12/24 02:35:50;;;;;;;0.90;0.90;;;;;;;;;;4995271;28;20049;-66
2023/12/24 02:38:17;;;;;;;1.58;1.48;;;;;;;;;;4995391;28;20535;-67
2023/12/24 02:40:43;;;;;;;0.90;0.90;;;;;;;;;;4992634;28;20116;-65
2023/12/24 02:43:09;;;;;;;1.40;1.30;;;;;;;;;;5012786;28;20029;-65
2023/12/24 02:45:36;;;;;;;1.10;1.10;;;;;;;;;;5020886;28;20061;-66
2023/12/24 02:48:02;;;;;;;1.08;1.08;;;;;;;;;;5026623;27;20033;-66
2023/12/24 02:50:28;;;;;;;1.65;1.00;;;;;;;;;;5013356;28;20042;-69
2023/12/24 02:52:54;;;;;;;1.10;1.10;;;;;;;;;;5023826;28;20029;-66
2023/12/24 02:55:21;;;;;;;1.00;1.00;;;;;;;;;;5017625;28;20033;-66
2023/12/24 02:57:47;;;;;;;1.27;1.20;;;;;;;;;;5016774;27;20097;-66
2023/12/24 03:00:14;;;;;;;1.23;1.10;;;;;;;;;;5005926;28;20083;-66
2023/12/24 03:02:40;;;;;;;1.17;1.10;;;;;;;;;;5009061;28;20380;-66
2023/12/24 03:05:06;;;;;;;1.73;1.00;;;;;;;;;;5015928;28;20035;-66
2023/12/24 03:07:33;;;;;;;1.10;1.10;;;;;;;;;;5023236;28;20071;-66
2023/12/24 03:09:59;;;;;;;1.30;1.30;;;;;;;;;;4997377;28;20372;-66
2023/12/24 03:12:25;;;;;;;3.60;1.67;;;;;;;;;;5018819;28;20471;-65
2023/12/24 03:14:52;;;;;;;1.20;1.15;;;;;;;;;;5022172;28;20477;-66
2023/12/24 03:17:18;;;;;;;1.65;1.20;;;;;;;;;;5002167;28;20026;-65
2023/12/24 03:19:47;;;;;;;1.30;1.30;;;;;;;;;;4994962;28;20026;-66
2023/12/24 03:22:13;;;;;;;1.15;1.05;;;;;;;;;;5011943;28;20030;-65
2023/12/24 03:24:39;;;;;;;1.40;1.33;;;;;;;;;;4996122;28;20053;-66
2023/12/24 03:27:05;;;;;;;1.10;1.10;;;;;;;;;;5023935;28;20033;-66
2023/12/24 03:29:32;;;;;;;1.40;1.30;;;;;;;;;;5013628;28;20030;-66
2023/12/24 03:31:58;;;;;;;1.10;1.10;;;;;;;;;;5027130;28;20027;-66
2023/12/24 03:34:24;;;;;;;1.10;1.10;;;;;;;;;;5017600;28;20434;-66
2023/12/24 03:36:50;;;;;;;1.08;1.08;;;;;;;;;;5010294;28;20033;-67
2023/12/24 03:39:16;;;;;;;1.00;1.00;;;;;;;;;;5013980;28;20284;-66
2023/12/24 03:41:43;;;;;;;2.03;1.88;;;;;;;;;;5000759;28;20171;-66
2023/12/24 03:44:09;;;;;;;1.02;1.02;;;;;;;;;;5021237;28;20162;-66
2023/12/24 03:46:35;;;;;;;2.10;1.17;;;;;;;;;;5015612;28;20389;-66
2023/12/24 03:49:02;;;;;;;1.13;1.13;;;;;;;;;;5020772;28;20030;-66
2023/12/24 03:51:28;;;;;;;1.15;1.15;;;;;;;;;;5026786;28;20041;-66
2023/12/24 03:53:54;;;;;;;0.93;0.93;;;;;;;;;;5016371;28;20122;-66
2023/12/24 03:56:20;;;;;;;1.27;1.05;;;;;;;;;;5004303;28;20553;-66
2023/12/24 03:58:46;;;;;;;1.10;1.10;;;;;;;;;;5018368;28;20120;-66
2023/12/24 04:01:13;;;;;;;1.15;1.15;;;;;;;;;;5018467;28;20036;-66
2023/12/24 04:03:41;;;;;;;1.10;1.10;;;;;;;;;;5016890;28;20540;-66
2023/12/24 04:06:13;;;;;;;1.10;1.10;;;;;;;;;;5023649;28;20365;-66
2023/12/24 04:08:39;;;;;;;1.10;1.10;;;;;;;;;;4997531;28;20017;-66
2023/12/24 04:11:11;;;;;;;0.93;0.93;;;;;;;;;;5008387;28;20033;-65
2023/12/24 04:13:38;;;;;;;0.80;0.80;;;;;;;;;;5019045;28;20026;-67
2023/12/24 04:16:04;;;;;;;1.20;1.20;;;;;;;;;;5010926;28;20107;-67
2023/12/24 04:18:30;;;;;;;1.10;1.10;;;;;;;;;;5018596;28;20030;-70
2023/12/24 04:20:56;;;;;;;0.90;0.90;;;;;;;;;;5080131;28;20024;-66
2023/12/24 04:23:22;;;;;;;0.93;0.93;;;;;;;;;;5011676;28;20171;-66
2023/12/24 04:25:49;;;;;;;1.02;1.02;;;;;;;;;;5010434;28;20048;-66
2023/12/24 04:28:15;;;;;;;1.17;1.17;;;;;;;;;;5015360;28;20041;-66
2023/12/24 04:30:42;;;;;;;0.98;0.98;;;;;;;;;;5031158;27;20585;-66
2023/12/24 04:33:08;;;;;;;0.82;0.82;;;;;;;;;;5063263;27;20119;-66
2023/12/24 04:35:34;;;;;;;1.00;1.00;;;;;;;;;;4986847;27;20114;-66
2023/12/24 04:38:00;;;;;;;1.90;1.10;;;;;;;;;;5078604;28;20026;-66
2023/12/24 04:40:26;;;;;;;1.10;1.10;;;;;;;;;;4998655;28;20158;-66
2023/12/24 04:42:52;;;;;;;0.90;0.90;;;;;;;;;;5018773;28;20112;-66
2023/12/24 04:45:19;;;;;;;1.00;1.00;;;;;;;;;;5015534;28;20048;-66
2023/12/24 04:47:45;;;;;;;0.82;0.82;;;;;;;;;;5028659;28;20108;-66
2023/12/24 04:50:11;;;;;;;0.88;0.88;;;;;;;;;;5010951;28;20030;-66
2023/12/24 04:52:38;;;;;;;0.93;0.93;;;;;;;;;;5018040;28;20443;-66
2023/12/24 04:55:04;;;;;;;1.00;1.00;;;;;;;;;;5012696;28;20030;-66
2023/12/24 04:57:31;;;;;;;1.00;1.00;;;;;;;;;;5012220;28;20492;-66
2023/12/24 04:59:57;;;;;;;1.77;1.20;;;;;;;;;;5021397;28;20059;-66
2023/12/24 05:02:24;;;;;;;1.00;1.00;;;;;;;;;;5003949;28;20025;-66
2023/12/24 05:04:50;;;;;;;1.00;1.00;;;;;;;;;;5020410;28;20025;-66
2023/12/24 05:07:16;;;;;;;3.30;1.10;;;;;;;;;;5021223;28;20037;-66
2023/12/24 05:09:43;;;;;;;1.00;1.00;;;;;;;;;;5022234;28;20032;-66
2023/12/24 05:12:09;;;;;;;1.00;1.00;;;;;;;;;;5022884;28;20078;-66
2023/12/24 05:14:36;;;;;;;1.05;1.05;;;;;;;;;;5009125;28;20069;-66
2023/12/24 05:17:02;;;;;;;2.20;1.10;;;;;;;;;;5002320;28;20037;-67
2023/12/24 05:19:28;;;;;;;1.00;1.00;;;;;;;;;;5022588;28;20086;-66
2023/12/24 05:21:54;;;;;;;1.10;1.10;;;;;;;;;;5005852;28;20621;-67
2023/12/24 05:24:21;;;;;;;1.00;1.00;;;;;;;;;;5018359;28;20041;-66
2023/12/24 05:26:47;;;;;;;1.30;1.20;;;;;;;;;;5020525;28;20029;-66
2023/12/24 05:29:14;;;;;;;0.90;0.90;;;;;;;;;;4999457;28;20060;-66
2023/12/24 05:31:40;;;;;;;1.30;1.20;;;;;;;;;;5018007;28;20430;-66
2023/12/24 05:34:08;;;;;;;1.00;1.00;;;;;;;;;;5009739;28;20045;-66
2023/12/24 05:36:34;;;;;;;0.90;0.90;;;;;;;;;;5005311;28;20109;-66
2023/12/24 05:39:03;;;;;;;1.10;1.10;;;;;;;;;;5078319;28;20037;-65
2023/12/24 05:41:29;;;;;;;1.10;1.10;;;;;;;;;;5017409;28;20149;-66
2023/12/24 05:43:55;;;;;;;1.00;1.00;;;;;;;;;;5005889;28;20022;-67
2023/12/24 05:46:23;;;;;;;1.02;1.02;;;;;;;;;;5013876;27;20030;-69
2023/12/24 05:48:49;;;;;;;0.93;0.93;;;;;;;;;;5014080;28;20021;-66
2023/12/24 05:51:16;;;;;;;0.82;0.82;;;;;;;;;;5018804;28;20024;-66
2023/12/24 05:53:45;;;;;;;0.90;0.90;;;;;;;;;;5019728;28;20112;-65
2023/12/24 05:56:12;;;;;;;0.95;0.95;;;;;;;;;;5004703;28;20089;-67
2023/12/24 05:58:58;;;;;;;1.60;1.00;;;;;;;;;;5054431;28;20409;-66
2023/12/24 06:01:24;;;;;;;0.98;0.98;;;;;;;;;;5052678;28;20485;-66
2023/12/24 06:03:50;;;;;;;1.20;1.20;;;;;;;;;;5038426;28;20053;-65
2023/12/24 06:06:16;;;;;;;0.95;0.95;;;;;;;;;;5037401;28;20076;-66
2023/12/24 06:08:42;;;;;;;0.70;0.70;;;;;;;;;;5034116;28;20086;-66
2023/12/24 06:11:15;;;;;;;0.90;0.90;;;;;;;;;;5036357;28;20423;-65
2023/12/24 06:13:42;;;;;;;1.00;1.00;;;;;;;;;;5037730;28;20033;-65
2023/12/24 06:16:09;;;;;;;1.00;1.00;;;;;;;;;;5036341;28;20427;-67
2023/12/24 06:18:35;;;;;;;0.93;0.93;;;;;;;;;;5042496;28;20068;-66
2023/12/24 06:21:05;;;;;;;0.90;0.90;;;;;;;;;;5037939;28;20327;-66
2023/12/24 06:23:34;;;;;;;1.35;1.00;;;;;;;;;;5042141;28;20025;-66
2023/12/24 06:26:00;;;;;;;0.90;0.90;;;;;;;;;;5038756;28;20503;-68
2023/12/24 06:28:26;;;;;;;0.90;0.90;;;;;;;;;;5041277;28;20395;-66
2023/12/24 06:30:53;;;;;;;1.63;0.95;;;;;;;;;;5038343;28;20050;-65
2023/12/24 06:33:19;;;;;;;3.38;1.08;;;;;;;;;;5039481;28;20041;-66
2023/12/24 06:35:45;;;;;;;0.90;0.90;;;;;;;;;;5032289;28;20040;-66
2023/12/24 06:38:12;;;;;;;0.90;0.90;;;;;;;;;;5038115;28;20086;-66
2023/12/24 06:40:38;;;;;;;0.93;0.93;;;;;;;;;;5041078;28;20440;-66
2023/12/24 06:43:06;;;;;;;1.08;1.08;;;;;;;;;;5040102;28;20029;-66
2023/12/24 06:45:32;;;;;;;1.00;1.00;;;;;;;;;;5040247;28;20025;-65
2023/12/24 06:47:59;;;;;;;0.82;0.82;;;;;;;;;;5032935;28;20037;-68
2023/12/24 06:50:28;;;;;;;0.80;0.80;;;;;;;;;;5037598;28;20026;-65
2023/12/24 06:52:54;;;;;;;0.80;0.80;;;;;;;;;;5036273;28;20033;-65
2023/12/24 06:55:21;;;;;;;1.00;1.00;;;;;;;;;;5038112;28;20026;-65
2023/12/24 06:57:47;;;;;;;1.23;0.82;;;;;;;;;;5035312;28;20045;-65
2023/12/24 07:00:14;;;;;;;0.90;0.90;;;;;;;;;;5038039;28;20083;-66
2023/12/24 07:02:40;;;;;;;0.93;0.93;;;;;;;;;;5032196;28;20574;-67
2023/12/24 07:05:07;;;;;;;1.20;1.20;;;;;;;;;;5036176;28;20798;-67
2023/12/24 07:07:33;;;;;;;1.00;1.00;;;;;;;;;;5036423;28;20029;-67
2023/12/24 07:09:59;;;;;;;0.95;0.95;;;;;;;;;;5025139;28;20439;-66
2023/12/24 07:12:27;;;;;;;1.00;1.00;;;;;;;;;;5024286;28;20039;-66
2023/12/24 07:14:53;;;;;;;0.90;0.90;;;;;;;;;;5020978;28;20021;-66
2023/12/24 07:17:20;;;;;;;0.95;0.95;;;;;;;;;;5022726;28;20045;-66
2023/12/24 07:19:46;;;;;;;0.90;0.90;;;;;;;;;;5020536;28;20136;-66
2023/12/24 07:22:16;;;;;;;0.95;0.95;;;;;;;;;;5026436;28;20018;-67
2023/12/24 07:24:42;;;;;;;0.80;0.80;;;;;;;;;;5017033;28;20235;-66
2023/12/24 07:27:08;;;;;;;1.00;1.00;;;;;;;;;;5018361;28;20030;-66
2023/12/24 07:29:34;;;;;;;0.95;0.90;;;;;;;;;;5018493;28;20109;-68
2023/12/24 07:32:00;;;;;;;0.80;0.80;;;;;;;;;;5020793;28;20029;-67
2023/12/24 07:34:27;;;;;;;2.30;1.10;;;;;;;;;;5017946;28;20572;-67
2023/12/24 07:36:53;;;;;;;0.98;0.98;;;;;;;;;;5037260;28;20022;-66
2023/12/24 07:39:20;;;;;;;0.90;0.90;;;;;;;;;;5022558;28;20033;-66
2023/12/24 07:41:47;;;;;;;0.80;0.80;;;;;;;;;;5023766;28;20112;-66
2023/12/24 07:44:13;;;;;;;1.00;1.00;;;;;;;;;;5020239;28;20044;-66
2023/12/24 07:46:39;;;;;;;0.90;0.90;;;;;;;;;;5020288;28;20022;-65
2023/12/24 07:49:05;;;;;;;0.90;0.90;;;;;;;;;;5024277;28;20030;-66
2023/12/24 07:51:33;;;;;;;0.90;0.90;;;;;;;;;;5014893;28;20446;-66
2023/12/24 07:53:59;;;;;;;1.00;1.00;;;;;;;;;;5023231;28;20461;-66
2023/12/24 07:56:25;;;;;;;1.10;1.10;;;;;;;;;;5016438;28;20090;-67
2023/12/24 07:58:52;;;;;;;1.80;1.00;;;;;;;;;;5024113;28;20099;-65
2023/12/24 08:01:18;;;;;;;1.08;1.08;;;;;;;;;;5026508;28;20022;-66
2023/12/24 08:03:44;;;;;;;0.90;0.90;;;;;;;;;;5025978;28;20034;-66
2023/12/24 08:06:10;;;;;;;0.90;0.90;;;;;;;;;;5027695;28;20122;-66
2023/12/24 08:08:36;;;;;;;1.08;1.08;;;;;;;;;;5023764;28;20022;-66
2023/12/24 08:11:03;;;;;;;1.00;1.00;;;;;;;;;;5020925;28;20488;-66
2023/12/24 08:13:29;;;;;;;1.00;1.00;;;;;;;;;;5024501;28;20188;-67
2023/12/24 08:15:55;;;;;;;0.90;0.90;;;;;;;;;;5022819;28;20381;-66
2023/12/24 08:18:21;;;;;;;1.00;1.00;;;;;;;;;;5020257;28;20022;-66
2023/12/24 08:20:47;;;;;;;0.90;0.90;;;;;;;;;;5024051;28;20392;-65
2023/12/24 08:23:16;;;;;;;0.90;0.90;;;;;;;;;;5029082;28;20080;-66
2023/12/24 08:25:42;;;;;;;1.00;1.00;;;;;;;;;;5024575;28;20136;-66
2023/12/24 08:28:09;;;;;;;1.00;1.00;;;;;;;;;;5022438;28;20056;-69
2023/12/24 08:30:35;;;;;;;0.90;0.90;;;;;;;;;;5024453;28;20532;-67
2023/12/24 08:33:01;;;;;;;1.00;1.00;;;;;;;;;;5023257;28;20033;-66
2023/12/24 08:35:28;;;;;;;1.02;1.02;;;;;;;;;;5025615;28;20086;-66
2023/12/24 08:37:54;;;;;;;1.00;1.00;;;;;;;;;;5016632;28;20045;-66
2023/12/24 08:40:30;;;;;;;1.00;1.00;;;;;;;;;;5007815;28;20021;-66
2023/12/24 08:42:56;;;;;;;1.00;1.00;;;;;;;;;;5017712;28;20376;-65
2023/12/24 08:45:23;;;;;;;0.90;0.90;;;;;;;;;;5034072;28;20025;-66
2023/12/24 08:47:49;;;;;;;1.00;1.00;;;;;;;;;;5018814;28;20033;-66
2023/12/24 08:50:16;;;;;;;1.00;1.00;;;;;;;;;;5019839;28;20036;-66
2023/12/24 08:52:43;;;;;;;1.08;1.08;;;;;;;;;;5019473;28;20099;-66
2023/12/24 08:55:09;;;;;;;1.00;1.00;;;;;;;;;;5018280;28;20026;-66
2023/12/24 08:57:35;;;;;;;1.00;1.00;;;;;;;;;;5022851;28;20489;-66
2023/12/24 09:00:02;;;;;;;1.20;1.20;;;;;;;;;;5016346;28;20385;-67
2023/12/24 09:02:29;;;;;;;1.02;1.02;;;;;;;;;;5021198;28;20017;-69
2023/12/24 09:04:57;;;;;;;1.00;1.00;;;;;;;;;;5021971;28;20041;-69
2023/12/24 09:07:23;;;;;;;1.00;1.00;;;;;;;;;;5021037;28;20117;-69
2023/12/24 09:09:51;;;;;;;0.93;0.93;;;;;;;;;;5022923;28;20022;-69
2023/12/24 09:12:18;;;;;;;1.25;1.20;;;;;;;;;;5018913;28;20992;-69
2023/12/24 09:14:49;;;;;;;1.10;1.10;;;;;;;;;;5026604;28;20029;-69
2023/12/24 09:17:16;;;;;;;1.02;1.02;;;;;;;;;;5023251;28;20500;-69
2023/12/24 09:19:43;;;;;;;0.93;0.93;;;;;;;;;;5021825;28;20079;-69
2023/12/24 09:22:09;;;;;;;0.93;0.93;;;;;;;;;;5015857;28;20029;-69
2023/12/24 09:24:38;;;;;;;1.05;1.05;;;;;;;;;;5022336;28;20052;-71
2023/12/24 09:27:05;;;;;;;1.00;1.00;;;;;;;;;;5027831;28;20409;-68
2023/12/24 09:29:31;;;;;;;2.58;1.30;;;;;;;;;;5013098;28;20511;-68
2023/12/24 09:31:57;;;;;;;0.90;0.90;;;;;;;;;;5015306;28;20040;-68
2023/12/24 09:34:23;;;;;;;1.00;1.00;;;;;;;;;;5022951;28;20030;-68
2023/12/24 09:36:50;;;;;;;1.10;1.10;;;;;;;;;;5020482;28;20034;-68
2023/12/24 09:39:16;;;;;;;1.00;1.00;;;;;;;;;;5019820;28;20100;-68
2023/12/24 09:41:42;;;;;;;1.17;1.17;;;;;;;;;;5018079;28;20497;-68
2023/12/24 09:44:08;;;;;;;1.17;1.17;;;;;;;;;;5018088;28;20033;-68
2023/12/24 09:46:35;;;;;;;1.10;1.10;;;;;;;;;;5017224;28;20040;-68
2023/12/24 09:49:01;;;;;;;1.00;1.00;;;;;;;;;;5032094;28;20079;-68
2023/12/24 09:51:27;;;;;;;1.02;1.02;;;;;;;;;;5018638;28;20516;-69
2023/12/24 09:53:55;;;;;;;1.10;1.10;;;;;;;;;;5015130;28;20040;-68
2023/12/24 09:56:21;;;;;;;1.13;1.13;;;;;;;;;;5020667;28;20024;-68
2023/12/24 09:58:48;;;;;;;1.08;1.08;;;;;;;;;;5013522;28;20064;-68
2023/12/24 10:01:14;;;;;;;1.10;1.10;;;;;;;;;;5019916;28;20409;-69
2023/12/24 10:03:40;;;;;;;1.23;1.23;;;;;;;;;;5025641;28;20025;-70
2023/12/24 10:06:07;;;;;;;1.13;1.02;;;;;;;;;;5025019;28;20380;-68
2023/12/24 10:08:33;;;;;;;1.02;1.02;;;;;;;;;;5012836;28;20099;-70
2023/12/24 10:11:16;;;;;;;1.02;1.02;;;;;;;;;;5019742;28;20040;-68
2023/12/24 10:13:44;;;;;;;1.02;1.02;;;;;;;;;;5013081;28;20045;-70
2023/12/24 10:16:10;;;;;;;1.17;1.08;;;;;;;;;;5017120;28;20086;-68
2023/12/24 10:18:37;;;;;;;1.00;1.00;;;;;;;;;;5023546;28;20032;-66
2023/12/24 10:21:06;;;;;;;1.20;1.20;;;;;;;;;;5016441;28;20144;-66
2023/12/24 10:23:33;;;;;;;1.10;1.10;;;;;;;;;;5016220;28;20849;-66
2023/12/24 10:26:01;;;;;;;0.95;0.95;;;;;;;;;;5018269;28;20041;-66
2023/12/24 10:28:27;;;;;;;1.15;1.15;;;;;;;;;;5019697;28;20578;-65
2023/12/24 10:31:05;;;;;;;1.42;1.33;;;;;;;;;;5012546;28;20249;-65
2023/12/24 10:33:31;;;;;;;1.52;1.10;;;;;;;;;;5012836;28;20488;-67
2023/12/24 10:35:57;;;;;;;1.25;1.25;;;;;;;;;;5034937;28;20030;-66
2023/12/24 10:38:27;;;;;;;1.13;1.13;;;;;;;;;;5017954;28;20056;-65
2023/12/24 10:40:53;;;;;;;1.10;1.10;;;;;;;;;;5019830;28;20052;-66
2023/12/24 10:43:19;;;;;;;1.48;1.33;;;;;;;;;;5014537;28;20033;-66
2023/12/24 10:45:45;;;;;;;1.23;1.23;;;;;;;;;;5021203;28;20037;-66
2023/12/24 10:48:12;;;;;;;1.23;1.20;;;;;;;;;;5036399;28;20033;-66
2023/12/24 10:50:39;;;;;;;2.33;1.50;;;;;;;;;;5016964;28;20121;-66
2023/12/24 10:53:05;;;;;;;2.55;1.70;;;;;;;;;;5024264;28;20060;-66
2023/12/24 10:55:35;;;;;;;1.50;1.40;;;;;;;;;;5021159;28;20033;-66
2023/12/24 10:58:21;;;;;;;1.15;1.15;;;;;;;;;;5018551;28;20037;-67
2023/12/24 11:00:47;;;;;;;1.27;1.27;;;;;;;;;;5021588;28;20067;-66
2023/12/24 11:03:33;;;;;;;1.20;1.20;;;;;;;;;;5014623;28;20176;-66
2023/12/24 11:05:59;;;;;;;1.30;1.27;;;;;;;;;;5023693;28;20068;-67
2023/12/24 11:08:25;;;;;;;1.20;1.20;;;;;;;;;;5023449;28;20037;-66
2023/12/24 11:11:04;;;;;;;1.00;1.00;;;;;;;;;;5036222;28;20034;-66
2023/12/24 11:13:34;;;;;;;1.05;1.05;;;;;;;;;;5024108;28;20038;-66
2023/12/24 11:16:00;;;;;;;1.10;1.10;;;;;;;;;;5024910;28;20077;-67
2023/12/24 11:18:46;;;;;;;1.15;1.15;;;;;;;;;;5028396;28;20532;-67
2023/12/24 11:21:18;;;;;;;1.35;1.25;;;;;;;;;;5022827;28;20060;-66
2023/12/24 11:24:04;;;;;;;1.20;1.20;;;;;;;;;;5020243;28;20025;-66
2023/12/24 11:26:31;;;;;;;1.13;1.13;;;;;;;;;;5023732;28;20076;-66
2023/12/24 11:28:58;;;;;;;1.27;1.20;;;;;;;;;;5022103;28;20396;-66
2023/12/24 11:31:27;;;;;;;6.60;1.75;;;;;;;;;;5019880;28;20029;-66
2023/12/24 11:33:54;;;;;;;1.38;1.30;;;;;;;;;;5021359;28;20037;-70
2023/12/24 11:36:21;;;;;;;1.20;1.20;;;;;;;;;;5022561;28;20518;-66
2023/12/24 11:38:48;;;;;;;2.78;1.52;;;;;;;;;;5026231;28;20433;-66
2023/12/24 11:41:15;;;;;;;3.03;1.60;;;;;;;;;;5020088;28;20631;-66
2023/12/24 11:43:42;;;;;;;2.50;1.50;;;;;;;;;;5021301;28;20375;-67
2023/12/24 11:46:09;;;;;;;1.63;1.52;;;;;;;;;;5015611;28;20452;-67
2023/12/24 11:48:35;;;;;;;1.85;1.10;;;;;;;;;;5025552;28;20405;-65
2023/12/24 11:51:05;;;;;;;1.15;1.13;;;;;;;;;;5023267;28;20025;-66
2023/12/24 11:53:32;;;;;;;1.88;1.60;;;;;;;;;;5028096;28;20029;-67
2023/12/24 11:56:15;;;;;;;2.70;1.35;;;;;;;;;;5024497;28;20068;-66
2023/12/24 11:58:51;;;;;;;2.13;1.50;;;;;;;;;;5021942;28;20049;-67
2023/12/24 12:01:17;;;;;;;;;;;;;;;;;;5025255;28;20503;-67
2023/12/24 12:03:43;;;;;;;3.53;1.77;;;;;;;;;;5023028;28;19913;-67
2023/12/24 12:06:09;;;;;;;3.50;1.60;;;;;;;;;;5025043;28;20713;-67
2023/12/24 12:08:35;;;;;;;2.50;1.48;;;;;;;;;;5021659;28;20113;-66
2023/12/24 12:11:01;;;;;;;7.75;3.45;;;;;;;;;;5020811;28;20037;-66
2023/12/24 12:13:28;;;;;;;4.60;1.60;;;;;;;;;;5014609;28;20447;-66
2023/12/24 12:15:54;;;;;;;3.38;1.95;;;;;;;;;;5023888;28;20036;-67
2023/12/24 12:18:21;;;;;;;3.92;2.05;;;;;;;;;;5018251;28;20107;-67
2023/12/24 12:20:48;;;;;;;2.58;1.80;;;;;;;;;;5021250;28;20029;-66
2023/12/24 12:23:16;;;;;;;3.13;1.90;;;;;;;;;;5019663;28;20063;-66
2023/12/24 12:25:45;;;;;;;2.45;1.80;;;;;;;;;;5018117;28;20030;-67
2023/12/24 12:28:11;;;;;;;16.75;9.10;;;;;;;;;;5021002;28;20539;-66
2023/12/24 12:30:38;;;;;;;12.10;6.65;;;;;;;;;;5025828;28;20493;-66
2023/12/24 12:33:04;;;;;;;8.45;6.15;;;;;;;;;;5016165;28;20033;-68
2023/12/24 12:35:31;;;;;;;7.32;4.88;;;;;;;;;;5018089;28;20094;-65
2023/12/24 12:37:57;;;;;;;4.90;3.10;;;;;;;;;;5017764;28;20030;-66
2023/12/24 12:40:23;;;;;;;5.05;2.22;;;;;;;;;;5022690;28;20336;-66
2023/12/24 12:42:50;;;;;;;3.92;2.78;;;;;;;;;;5019968;28;20416;-66
2023/12/24 12:45:16;;;;;;;3.90;1.80;;;;;;;;;;5019797;28;21474;-64
2023/12/24 12:47:42;;;;;;;2.45;2.25;;;;;;;;;;5009522;28;20044;-64
2023/12/24 12:50:09;;;;;;;5.72;2.88;;;;;;;;;;5019609;28;20037;-65
2023/12/24 12:52:36;;;;;;;6.03;2.08;;;;;;;;;;5015797;28;20034;-64
2023/12/24 12:55:02;;;;;;;4.50;1.90;;;;;;;;;;5014879;28;20061;-64
2023/12/24 12:57:32;;;;;;;3.15;2.25;;;;;;;;;;5018720;28;20052;-64
2023/12/24 13:00:13;;;;;;;3.50;2.05;;;;;;;;;;5031172;28;20025;-64
2023/12/24 13:02:43;;;;;;;3.20;2.58;;;;;;;;;;5015232;28;20035;-64
2023/12/24 13:05:28;;;;;;;5.65;3.03;;;;;;;;;;5014912;28;20091;-63
2023/12/24 13:07:54;;;;;;;4.03;2.33;;;;;;;;;;5019258;28;20025;-67
2023/12/24 13:10:28;;;;;;;4.60;2.63;;;;;;;;;;5018305;28;20045;-66
2023/12/24 13:13:13;;;;;;;3.45;1.85;;;;;;;;;;5044318;28;20248;-66
2023/12/24 13:15:40;;;;;;;2.60;2.40;;;;;;;;;;5016333;28;20057;-66
2023/12/24 13:18:15;;;;;;;5.72;2.63;;;;;;;;;;5015872;28;20048;-66
2023/12/24 13:20:42;;;;;;;11.23;2.30;;;;;;;;;;5018900;28;20025;-66
2023/12/24 13:23:09;;;;;;;6.43;2.42;;;;;;;;;;5018659;28;20022;-64
2023/12/24 13:25:39;;;;;;;4.43;2.28;;;;;;;;;;5016206;28;20042;-65
2023/12/24 13:28:05;;;;;;;7.32;1.77;;;;;;;;;;5020692;28;20413;-65
2023/12/24 13:30:31;;;;;;;7.43;1.88;;;;;;;;;;5018615;28;20432;-65
2023/12/24 13:32:58;;;;;;;2.65;1.60;;;;;;;;;;5013050;28;20128;-65
2023/12/24 13:35:25;;;;;;;1.75;1.65;;;;;;;;;;5013842;28;20124;-67
2023/12/24 13:37:51;;;;;;;3.85;2.20;;;;;;;;;;5014921;28;20041;-65
2023/12/24 13:40:17;;;;;;;4.57;2.15;;;;;;;;;;5017488;28;20014;-66
2023/12/24 13:42:43;;;;;;;5.50;3.20;;;;;;;;;;5016958;28;20035;-65
2023/12/24 13:45:10;;;;;;;5.88;2.97;;;;;;;;;;5022500;28;20032;-65
2023/12/24 13:47:36;;;;;;;6.97;1.98;;;;;;;;;;5019389;28;20040;-65
2023/12/24 13:50:03;;;;;;;1.70;1.60;;;;;;;;;;5016135;28;20029;-65
2023/12/24 13:52:30;;;;;;;9.38;2.53;;;;;;;;;;5034218;28;20033;-65
2023/12/24 13:54:57;;;;;;;4.70;2.30;;;;;;;;;;5019173;28;20030;-65
2023/12/24 13:57:23;;;;;;;6.85;3.63;;;;;;;;;;5020592;28;20052;-65
2023/12/24 13:59:49;;;;;;;4.00;1.98;;;;;;;;;;5023193;28;20030;-64
2023/12/24 14:02:16;;;;;;;2.20;1.58;;;;;;;;;;5015885;28;20021;-64
2023/12/24 14:04:42;;;;;;;5.07;2.22;;;;;;;;;;5014828;28;20037;-64
2023/12/24 14:07:08;;;;;;;2.35;1.75;;;;;;;;;;5022486;28;20647;-65
2023/12/24 14:09:34;;;;;;;1.85;1.60;;;;;;;;;;5026053;28;20112;-65
2023/12/24 14:12:01;;;;;;;4.55;1.80;;;;;;;;;;5019882;28;20048;-64
2023/12/24 14:14:27;;;;;;;4.45;2.08;;;;;;;;;;5018312;28;20029;-65
2023/12/24 14:16:56;;;;;;;5.35;1.73;;;;;;;;;;5014081;28;20026;-64
2023/12/24 14:19:22;;;;;;;3.72;2.05;;;;;;;;;;5023308;28;20051;-65
2023/12/24 14:21:48;;;;;;;2.50;1.88;;;;;;;;;;5020839;28;20574;-65
2023/12/24 14:24:15;;;;;;;2.47;2.28;;;;;;;;;;5022114;28;20404;-64
2023/12/24 14:26:42;;;;;;;5.38;1.77;;;;;;;;;;5019699;28;20025;-65
2023/12/24 14:29:08;;;;;;;4.47;1.70;;;;;;;;;;5020230;28;20083;-65
2023/12/24 14:31:34;;;;;;;4.68;2.22;;;;;;;;;;5024844;28;20028;-64
2023/12/24 14:34:00;;;;;;;2.13;1.83;;;;;;;;;;5023412;28;20025;-66
2023/12/24 14:36:28;;;;;;;6.45;1.90;;;;;;;;;;5025481;28;20044;-65
2023/12/24 14:38:54;;;;;;;5.15;1.90;;;;;;;;;;5026344;28;20030;-64
2023/12/24 14:41:21;;;;;;;5.70;2.30;;;;;;;;;;5026394;28;20037;-70
2023/12/24 14:43:47;;;;;;;3.42;1.60;;;;;;;;;;5022240;28;20485;-65
2023/12/24 14:46:13;;;;;;;5.18;1.75;;;;;;;;;;5028249;28;20025;-65